sensor_id;sensor_type;location;lat;lon;timestamp;pressure;altitude;pressure_sealevel;temperature;humidity
77869;BME280;67231;59.144;37.934;2023-06-10T00:02:00;100934.78;;;5.76;67.78
77869;BME280;67231;59.144;37.934;2023-06-10T00:04:27;100940.69;;;5.80;67.64
77869;BME280;67231;59.144;37.934;2023-06-10T00:06:53;100939.53;;;5.84;68.25
77869;BME280;67231;59.144;37.934;2023-06-10T00:09:20;100931.53;;;5.86;67.17
77869;BME280;67231;59.144;37.934;2023-06-10T00:11:47;100948.84;;;5.90;67.37
77869;BME280;67231;59.144;37.934;2023-06-10T00:14:13;100942.53;;;5.92;67.44
77869;BME280;67231;59.144;37.934;2023-06-10T00:16:40;100950.22;;;5.95;68.02
77869;BME280;67231;59.144;37.934;2023-06-10T00:19:06;100944.88;;;5.97;67.82
77869;BME280;67231;59.144;37.934;2023-06-10T00:21:34;100951.66;;;6.01;67.58
77869;BME280;67231;59.144;37.934;2023-06-10T00:24:08;100947.22;;;6.01;67.19
77869;BME280;67231;59.144;37.934;2023-06-10T00:26:41;100957.66;;;6.03;66.97
77869;BME280;67231;59.144;37.934;2023-06-10T00:29:08;100957.56;;;6.05;67.58
77869;BME280;67231;59.144;37.934;2023-06-10T00:31:35;100952.19;;;6.06;67.74
77869;BME280;67231;59.144;37.934;2023-06-10T00:34:01;100960.00;;;6.08;68.07
77869;BME280;67231;59.144;37.934;2023-06-10T00:36:28;100969.50;;;6.10;67.40
77869;BME280;67231;59.144;37.934;2023-06-10T00:38:56;100967.59;;;6.12;67.46
77869;BME280;67231;59.144;37.934;2023-06-10T00:41:23;100970.34;;;6.11;67.48
77869;BME280;67231;59.144;37.934;2023-06-10T00:43:50;100971.28;;;6.10;68.05
77869;BME280;67231;59.144;37.934;2023-06-10T00:46:16;100973.81;;;6.11;67.62
77869;BME280;67231;59.144;37.934;2023-06-10T00:48:45;100972.97;;;6.11;67.27
77869;BME280;67231;59.144;37.934;2023-06-10T00:51:11;100980.78;;;6.12;68.30
77869;BME280;67231;59.144;37.934;2023-06-10T00:53:40;100989.03;;;6.20;67.87
77869;BME280;67231;59.144;37.934;2023-06-10T00:56:07;100987.78;;;6.26;67.91
77869;BME280;67231;59.144;37.934;2023-06-10T00:58:35;100994.72;;;6.54;67.49
77869;BME280;67231;59.144;37.934;2023-06-10T01:01:02;100994.75;;;7.32;64.78
77869;BME280;67231;59.144;37.934;2023-06-10T01:03:30;101004.31;;;8.32;62.67
77869;BME280;67231;59.144;37.934;2023-06-10T01:08:59;101000.47;;;9.75;58.85
77869;BME280;67231;59.144;37.934;2023-06-10T01:11:42;100998.38;;;10.13;57.88
77869;BME280;67231;59.144;37.934;2023-06-10T01:14:10;100994.75;;;10.46;56.73
77869;BME280;67231;59.144;37.934;2023-06-10T01:16:38;101003.28;;;10.82;55.91
77869;BME280;67231;59.144;37.934;2023-06-10T01:19:07;101010.66;;;11.00;55.31
77869;BME280;67231;59.144;37.934;2023-06-10T01:21:34;101011.75;;;10.76;55.63
77869;BME280;67231;59.144;37.934;2023-06-10T01:24:01;101017.59;;;10.37;56.64
77869;BME280;67231;59.144;37.934;2023-06-10T01:26:30;101014.09;;;10.69;55.55
77869;BME280;67231;59.144;37.934;2023-06-10T01:29:15;101016.78;;;11.21;54.56
77869;BME280;67231;59.144;37.934;2023-06-10T01:32:02;101021.75;;;11.76;53.51
77869;BME280;67231;59.144;37.934;2023-06-10T01:34:31;101023.56;;;12.26;52.69
77869;BME280;67231;59.144;37.934;2023-06-10T01:36:59;101035.38;;;12.53;51.67
77869;BME280;67231;59.144;37.934;2023-06-10T01:39:26;101028.38;;;12.71;50.83
77869;BME280;67231;59.144;37.934;2023-06-10T01:41:53;101033.13;;;12.97;50.40
77869;BME280;67231;59.144;37.934;2023-06-10T01:44:22;101037.72;;;13.15;49.82
77869;BME280;67231;59.144;37.934;2023-06-10T01:46:49;101049.72;;;13.38;49.15
77869;BME280;67231;59.144;37.934;2023-06-10T01:49:15;101044.53;;;13.74;48.14
77869;BME280;67231;59.144;37.934;2023-06-10T01:51:43;101053.50;;;14.01;47.68
77869;BME280;67231;59.144;37.934;2023-06-10T01:54:10;101048.03;;;14.02;47.37
77869;BME280;67231;59.144;37.934;2023-06-10T01:56:36;101050.72;;;13.18;49.00
77869;BME280;67231;59.144;37.934;2023-06-10T01:59:02;101065.91;;;13.07;48.57
77869;BME280;67231;59.144;37.934;2023-06-10T02:01:29;101072.09;;;12.88;49.32
77869;BME280;67231;59.144;37.934;2023-06-10T02:03:55;101071.53;;;12.65;49.32
77869;BME280;67231;59.144;37.934;2023-06-10T02:06:22;101078.56;;;11.96;50.55
77869;BME280;67231;59.144;37.934;2023-06-10T02:08:48;101073.66;;;10.98;52.50
77869;BME280;67231;59.144;37.934;2023-06-10T02:11:14;101079.16;;;11.48;51.79
77869;BME280;67231;59.144;37.934;2023-06-10T02:13:41;101077.38;;;13.08;48.78
77869;BME280;67231;59.144;37.934;2023-06-10T02:16:08;101086.59;;;14.18;46.44
77869;BME280;67231;59.144;37.934;2023-06-10T02:18:35;101090.25;;;13.32;47.71
77869;BME280;67231;59.144;37.934;2023-06-10T02:21:06;101093.50;;;12.28;49.15
77869;BME280;67231;59.144;37.934;2023-06-10T02:23:32;101092.00;;;11.43;51.05
77869;BME280;67231;59.144;37.934;2023-06-10T02:25:59;101088.31;;;11.34;51.15
77869;BME280;67231;59.144;37.934;2023-06-10T02:28:25;101095.75;;;13.11;48.72
77869;BME280;67231;59.144;37.934;2023-06-10T02:30:51;101091.50;;;14.58;46.13
77869;BME280;67231;59.144;37.934;2023-06-10T02:33:18;101099.28;;;15.50;44.90
77869;BME280;67231;59.144;37.934;2023-06-10T02:35:45;101089.00;;;15.37;44.70
77869;BME280;67231;59.144;37.934;2023-06-10T02:38:12;101105.00;;;13.83;47.46
77869;BME280;67231;59.144;37.934;2023-06-10T02:40:38;101101.34;;;13.84;48.03
77869;BME280;67231;59.144;37.934;2023-06-10T02:43:05;101105.91;;;14.75;46.15
77869;BME280;67231;59.144;37.934;2023-06-10T02:45:32;101103.53;;;15.87;44.26
77869;BME280;67231;59.144;37.934;2023-06-10T02:48:00;101112.47;;;16.63;42.86
77869;BME280;67231;59.144;37.934;2023-06-10T02:50:26;101117.38;;;17.25;41.54
77869;BME280;67231;59.144;37.934;2023-06-10T02:53:00;101121.50;;;17.77;41.00
77869;BME280;67231;59.144;37.934;2023-06-10T02:55:30;101128.72;;;18.25;40.12
77869;BME280;67231;59.144;37.934;2023-06-10T02:58:00;101130.03;;;18.60;39.44
77869;BME280;67231;59.144;37.934;2023-06-10T03:00:27;101129.47;;;18.96;38.70
77869;BME280;67231;59.144;37.934;2023-06-10T03:02:54;101145.66;;;19.34;37.96
77869;BME280;67231;59.144;37.934;2023-06-10T03:05:26;101142.72;;;19.59;37.38
77869;BME280;67231;59.144;37.934;2023-06-10T03:07:54;101152.44;;;19.45;37.23
77869;BME280;67231;59.144;37.934;2023-06-10T03:10:22;101151.09;;;18.48;37.86
77869;BME280;67231;59.144;37.934;2023-06-10T03:12:48;101156.03;;;17.97;38.02
77869;BME280;67231;59.144;37.934;2023-06-10T03:15:14;101154.97;;;18.77;36.61
77869;BME280;67231;59.144;37.934;2023-06-10T03:17:42;101158.94;;;19.13;36.18
77869;BME280;67231;59.144;37.934;2023-06-10T03:20:09;101159.03;;;19.19;36.14
77869;BME280;67231;59.144;37.934;2023-06-10T03:22:37;101161.91;;;19.18;35.88
77869;BME280;67231;59.144;37.934;2023-06-10T03:25:08;101164.97;;;19.15;36.04
77869;BME280;67231;59.144;37.934;2023-06-10T03:27:42;101156.78;;;17.00;38.35
77869;BME280;67231;59.144;37.934;2023-06-10T03:30:10;101160.97;;;14.86;41.79
77869;BME280;67231;59.144;37.934;2023-06-10T03:32:39;101172.22;;;13.40;44.01
77869;BME280;67231;59.144;37.934;2023-06-10T03:35:08;101172.41;;;12.49;45.57
77869;BME280;67231;59.144;37.934;2023-06-10T03:37:35;101177.25;;;11.93;46.81
77869;BME280;67231;59.144;37.934;2023-06-10T03:40:01;101177.56;;;11.58;47.77
77869;BME280;67231;59.144;37.934;2023-06-10T03:42:31;101174.72;;;11.28;47.21
77869;BME280;67231;59.144;37.934;2023-06-10T03:44:58;101185.16;;;11.09;47.78
77869;BME280;67231;59.144;37.934;2023-06-10T03:47:24;101187.06;;;10.86;48.68
77869;BME280;67231;59.144;37.934;2023-06-10T03:49:51;101195.44;;;10.70;48.40
77869;BME280;67231;59.144;37.934;2023-06-10T03:52:19;101187.50;;;10.59;48.83
77869;BME280;67231;59.144;37.934;2023-06-10T03:54:45;101193.03;;;10.67;48.18
77869;BME280;67231;59.144;37.934;2023-06-10T03:57:12;101186.63;;;10.69;49.41
77869;BME280;67231;59.144;37.934;2023-06-10T03:59:38;101193.38;;;10.73;49.24
77869;BME280;67231;59.144;37.934;2023-06-10T04:02:04;101189.88;;;10.73;48.08
77869;BME280;67231;59.144;37.934;2023-06-10T04:04:31;101191.78;;;10.82;47.83
77869;BME280;67231;59.144;37.934;2023-06-10T04:06:58;101192.34;;;10.97;48.04
77869;BME280;67231;59.144;37.934;2023-06-10T04:09:26;101189.50;;;11.10;48.19
77869;BME280;67231;59.144;37.934;2023-06-10T04:11:52;101190.31;;;11.22;47.41
77869;BME280;67231;59.144;37.934;2023-06-10T04:14:19;101189.75;;;11.07;48.30
77869;BME280;67231;59.144;37.934;2023-06-10T04:16:46;101185.44;;;10.94;48.54
77869;BME280;67231;59.144;37.934;2023-06-10T04:19:12;101198.75;;;10.83;48.98
77869;BME280;67231;59.144;37.934;2023-06-10T04:21:39;101196.38;;;10.69;49.95
77869;BME280;67231;59.144;37.934;2023-06-10T04:24:05;101197.75;;;10.63;50.38
77869;BME280;67231;59.144;37.934;2023-06-10T04:26:35;101201.09;;;10.65;50.33
77869;BME280;67231;59.144;37.934;2023-06-10T04:29:01;101200.28;;;10.65;50.31
77869;BME280;67231;59.144;37.934;2023-06-10T04:31:28;101202.09;;;10.64;50.02
77869;BME280;67231;59.144;37.934;2023-06-10T04:33:55;101201.09;;;10.65;50.12
77869;BME280;67231;59.144;37.934;2023-06-10T04:36:21;101207.25;;;10.77;50.15
77869;BME280;67231;59.144;37.934;2023-06-10T04:38:47;101202.25;;;10.95;49.90
77869;BME280;67231;59.144;37.934;2023-06-10T04:41:14;101191.81;;;11.36;49.83
77869;BME280;67231;59.144;37.934;2023-06-10T04:43:40;101200.97;;;11.64;48.52
77869;BME280;67231;59.144;37.934;2023-06-10T04:46:06;101205.63;;;11.72;49.29
77869;BME280;67231;59.144;37.934;2023-06-10T04:48:33;101196.47;;;11.85;48.89
77869;BME280;67231;59.144;37.934;2023-06-10T04:51:01;101201.34;;;12.73;47.36
77869;BME280;67231;59.144;37.934;2023-06-10T04:53:27;101202.63;;;14.79;43.86
77869;BME280;67231;59.144;37.934;2023-06-10T04:55:54;101209.34;;;15.99;42.66
77869;BME280;67231;59.144;37.934;2023-06-10T04:58:20;101205.06;;;17.17;40.64
77869;BME280;67231;59.144;37.934;2023-06-10T05:00:47;101224.94;;;18.69;39.00
77869;BME280;67231;59.144;37.934;2023-06-10T05:03:13;101229.63;;;20.06;37.53
77869;BME280;67231;59.144;37.934;2023-06-10T05:05:39;101233.03;;;21.32;36.40
77869;BME280;67231;59.144;37.934;2023-06-10T05:08:06;101229.59;;;21.95;34.96
77869;BME280;67231;59.144;37.934;2023-06-10T05:10:32;101230.22;;;20.82;35.79
77869;BME280;67231;59.144;37.934;2023-06-10T05:13:00;101240.34;;;21.60;34.58
77869;BME280;67231;59.144;37.934;2023-06-10T05:15:26;101233.16;;;20.21;35.22
77869;BME280;67231;59.144;37.934;2023-06-10T05:17:52;101229.41;;;19.08;36.58
77869;BME280;67231;59.144;37.934;2023-06-10T05:20:19;101232.00;;;19.01;36.62
77869;BME280;67231;59.144;37.934;2023-06-10T05:22:45;101238.13;;;20.84;34.41
77869;BME280;67231;59.144;37.934;2023-06-10T05:25:12;101232.41;;;20.27;34.84
77869;BME280;67231;59.144;37.934;2023-06-10T05:27:38;101236.56;;;21.33;33.73
77869;BME280;67231;59.144;37.934;2023-06-10T05:30:06;101241.41;;;22.50;32.19
77869;BME280;67231;59.144;37.934;2023-06-10T05:32:33;101233.16;;;22.30;32.60
77869;BME280;67231;59.144;37.934;2023-06-10T05:34:59;101243.13;;;23.67;31.03
77869;BME280;67231;59.144;37.934;2023-06-10T05:37:27;101244.28;;;24.38;30.55
77869;BME280;67231;59.144;37.934;2023-06-10T05:39:53;101244.00;;;25.04;30.01
77869;BME280;67231;59.144;37.934;2023-06-10T05:42:19;101253.38;;;25.40;29.46
77869;BME280;67231;59.144;37.934;2023-06-10T05:44:46;101249.38;;;25.68;28.63
77869;BME280;67231;59.144;37.934;2023-06-10T05:47:12;101251.41;;;25.54;28.26
77869;BME280;67231;59.144;37.934;2023-06-10T05:49:38;101245.03;;;25.03;29.05
77869;BME280;67231;59.144;37.934;2023-06-10T05:52:05;101249.81;;;25.08;29.03
77869;BME280;67231;59.144;37.934;2023-06-10T05:54:32;101256.44;;;26.01;28.07
77869;BME280;67231;59.144;37.934;2023-06-10T05:56:58;101253.47;;;26.65;27.64
77869;BME280;67231;59.144;37.934;2023-06-10T05:59:25;101251.59;;;26.77;26.85
77869;BME280;67231;59.144;37.934;2023-06-10T06:01:51;101256.53;;;26.13;27.51
77869;BME280;67231;59.144;37.934;2023-06-10T06:04:17;101253.22;;;24.97;28.18
77869;BME280;67231;59.144;37.934;2023-06-10T06:06:44;101260.22;;;24.00;28.67
77869;BME280;67231;59.144;37.934;2023-06-10T06:09:10;101256.22;;;23.30;29.41
77869;BME280;67231;59.144;37.934;2023-06-10T06:11:36;101263.88;;;22.23;30.52
77869;BME280;67231;59.144;37.934;2023-06-10T06:14:02;101265.63;;;22.72;30.32
77869;BME280;67231;59.144;37.934;2023-06-10T06:16:29;101258.22;;;21.18;31.30
77869;BME280;67231;59.144;37.934;2023-06-10T06:18:55;101260.84;;;22.74;30.45
77869;BME280;67231;59.144;37.934;2023-06-10T06:21:21;101251.38;;;24.25;28.32
77869;BME280;67231;59.144;37.934;2023-06-10T06:23:47;101255.19;;;23.71;28.95
77869;BME280;67231;59.144;37.934;2023-06-10T06:26:14;101264.69;;;21.88;30.31
77869;BME280;67231;59.144;37.934;2023-06-10T06:28:40;101264.19;;;22.06;30.45
77869;BME280;67231;59.144;37.934;2023-06-10T06:31:07;101271.13;;;22.99;29.59
77869;BME280;67231;59.144;37.934;2023-06-10T06:33:33;101265.06;;;22.13;30.30
77869;BME280;67231;59.144;37.934;2023-06-10T06:36:00;101265.44;;;22.80;29.55
77869;BME280;67231;59.144;37.934;2023-06-10T06:38:26;101259.72;;;20.84;31.21
77869;BME280;67231;59.144;37.934;2023-06-10T06:40:53;101270.34;;;20.41;31.98
77869;BME280;67231;59.144;37.934;2023-06-10T06:43:20;101263.84;;;22.44;29.68
77869;BME280;67231;59.144;37.934;2023-06-10T06:45:57;101263.75;;;24.14;28.31
77869;BME280;67231;59.144;37.934;2023-06-10T06:48:24;101267.78;;;25.41;27.05
77869;BME280;67231;59.144;37.934;2023-06-10T06:50:50;101272.19;;;26.17;26.67
77869;BME280;67231;59.144;37.934;2023-06-10T06:53:17;101264.44;;;26.88;25.63
77869;BME280;67231;59.144;37.934;2023-06-10T06:55:43;101275.25;;;27.79;25.07
77869;BME280;67231;59.144;37.934;2023-06-10T06:58:09;101285.44;;;27.72;25.23
77869;BME280;67231;59.144;37.934;2023-06-10T07:00:36;101280.19;;;27.59;25.19
77869;BME280;67231;59.144;37.934;2023-06-10T07:03:04;101277.25;;;27.60;25.85
77869;BME280;67231;59.144;37.934;2023-06-10T07:05:30;101286.00;;;27.20;25.28
77869;BME280;67231;59.144;37.934;2023-06-10T07:07:57;101270.91;;;25.95;26.42
77869;BME280;67231;59.144;37.934;2023-06-10T07:10:24;101276.47;;;23.47;28.34
77869;BME280;67231;59.144;37.934;2023-06-10T07:12:52;101279.63;;;21.19;30.40
77869;BME280;67231;59.144;37.934;2023-06-10T07:15:19;101282.91;;;19.80;31.67
77869;BME280;67231;59.144;37.934;2023-06-10T07:17:46;101285.72;;;18.86;32.99
77869;BME280;67231;59.144;37.934;2023-06-10T07:20:12;101292.59;;;18.25;34.00
77869;BME280;67231;59.144;37.934;2023-06-10T07:22:39;101288.28;;;17.82;34.23
77869;BME280;67231;59.144;37.934;2023-06-10T07:25:06;101285.94;;;17.71;34.47
77869;BME280;67231;59.144;37.934;2023-06-10T07:27:32;101294.31;;;17.43;35.13
77869;BME280;67231;59.144;37.934;2023-06-10T07:29:59;101290.91;;;17.17;35.89
77869;BME280;67231;59.144;37.934;2023-06-10T07:32:27;101291.00;;;16.90;36.36
77869;BME280;67231;59.144;37.934;2023-06-10T07:34:53;101280.50;;;16.71;36.27
77869;BME280;67231;59.144;37.934;2023-06-10T07:37:20;101278.88;;;17.54;35.88
77869;BME280;67231;59.144;37.934;2023-06-10T07:39:47;101286.16;;;19.29;33.76
77869;BME280;67231;59.144;37.934;2023-06-10T07:42:13;101283.47;;;19.68;33.19
77869;BME280;67231;59.144;37.934;2023-06-10T07:44:39;101284.59;;;19.96;33.10
77869;BME280;67231;59.144;37.934;2023-06-10T07:47:06;101285.31;;;18.98;33.26
77869;BME280;67231;59.144;37.934;2023-06-10T07:49:32;101293.81;;;18.22;34.17
77869;BME280;67231;59.144;37.934;2023-06-10T07:51:58;101290.63;;;18.02;34.25
77869;BME280;67231;59.144;37.934;2023-06-10T07:54:29;101284.63;;;19.04;33.52
77869;BME280;67231;59.144;37.934;2023-06-10T07:56:55;101286.03;;;18.91;33.80
77869;BME280;67231;59.144;37.934;2023-06-10T07:59:21;101295.63;;;18.38;34.10
77869;BME280;67231;59.144;37.934;2023-06-10T08:01:48;101287.94;;;17.61;34.42
77869;BME280;67231;59.144;37.934;2023-06-10T08:04:14;101280.34;;;17.15;35.15
77869;BME280;67231;59.144;37.934;2023-06-10T08:06:40;101284.69;;;17.08;35.00
77869;BME280;67231;59.144;37.934;2023-06-10T08:09:07;101285.16;;;16.95;35.23
77869;BME280;67231;59.144;37.934;2023-06-10T08:11:33;101285.19;;;16.77;35.85
77869;BME280;67231;59.144;37.934;2023-06-10T08:13:59;101289.34;;;16.63;35.79
77869;BME280;67231;59.144;37.934;2023-06-10T08:16:25;101295.91;;;16.34;36.19
77869;BME280;67231;59.144;37.934;2023-06-10T08:18:51;101298.31;;;16.19;36.93
77869;BME280;67231;59.144;37.934;2023-06-10T08:21:19;101290.97;;;17.99;35.44
77869;BME280;67231;59.144;37.934;2023-06-10T08:23:45;101295.44;;;18.79;34.86
77869;BME280;67231;59.144;37.934;2023-06-10T08:26:11;101294.22;;;19.76;33.56
77869;BME280;67231;59.144;37.934;2023-06-10T08:28:38;101296.59;;;19.71;33.05
77869;BME280;67231;59.144;37.934;2023-06-10T08:31:04;101310.13;;;18.60;34.08
77869;BME280;67231;59.144;37.934;2023-06-10T08:33:30;101318.47;;;17.52;35.32
77869;BME280;67231;59.144;37.934;2023-06-10T08:35:57;101323.16;;;16.64;36.60
77869;BME280;67231;59.144;37.934;2023-06-10T08:38:23;101319.03;;;15.91;37.95
77869;BME280;67231;59.144;37.934;2023-06-10T08:40:53;101328.19;;;15.53;38.43
77869;BME280;67231;59.144;37.934;2023-06-10T08:43:33;101325.53;;;15.35;38.74
77869;BME280;67231;59.144;37.934;2023-06-10T08:46:03;101313.88;;;15.44;38.41
77869;BME280;67231;59.144;37.934;2023-06-10T08:48:30;101316.16;;;15.84;37.27
77869;BME280;67231;59.144;37.934;2023-06-10T08:50:59;101321.19;;;16.66;36.87
77869;BME280;67231;59.144;37.934;2023-06-10T08:53:26;101306.63;;;17.03;36.43
77869;BME280;67231;59.144;37.934;2023-06-10T08:55:55;101319.41;;;17.18;36.12
77869;BME280;67231;59.144;37.934;2023-06-10T08:58:25;101314.69;;;17.03;35.87
77869;BME280;67231;59.144;37.934;2023-06-10T09:00:53;101309.22;;;16.87;35.94
77869;BME280;67231;59.144;37.934;2023-06-10T09:03:21;101324.88;;;16.65;35.88
77869;BME280;67231;59.144;37.934;2023-06-10T09:05:48;101324.66;;;16.32;36.70
77869;BME280;67231;59.144;37.934;2023-06-10T09:08:15;101321.00;;;16.33;36.93
77869;BME280;67231;59.144;37.934;2023-06-10T09:10:42;101325.72;;;16.39;36.91
77869;BME280;67231;59.144;37.934;2023-06-10T09:13:08;101323.16;;;16.30;37.74
77869;BME280;67231;59.144;37.934;2023-06-10T09:15:35;101320.41;;;16.48;37.40
77869;BME280;67231;59.144;37.934;2023-06-10T09:18:01;101321.81;;;16.60;37.21
77869;BME280;67231;59.144;37.934;2023-06-10T09:20:31;101326.72;;;16.99;37.16
77869;BME280;67231;59.144;37.934;2023-06-10T09:23:01;101331.09;;;17.08;36.44
77869;BME280;67231;59.144;37.934;2023-06-10T09:25:35;101316.34;;;17.04;36.46
77869;BME280;67231;59.144;37.934;2023-06-10T09:28:03;101320.91;;;17.28;36.25
77869;BME280;67231;59.144;37.934;2023-06-10T09:30:34;101324.38;;;17.04;37.02
77869;BME280;67231;59.144;37.934;2023-06-10T09:33:09;101330.56;;;16.70;37.20
77869;BME280;67231;59.144;37.934;2023-06-10T09:35:35;101323.22;;;16.72;36.81
77869;BME280;67231;59.144;37.934;2023-06-10T09:38:02;101320.72;;;17.05;36.89
77869;BME280;67231;59.144;37.934;2023-06-10T09:40:29;101324.47;;;17.29;36.03
77869;BME280;67231;59.144;37.934;2023-06-10T09:42:59;101324.81;;;17.34;36.13
77869;BME280;67231;59.144;37.934;2023-06-10T09:45:30;101333.50;;;17.20;36.70
77869;BME280;67231;59.144;37.934;2023-06-10T09:48:00;101325.22;;;16.97;37.33
77869;BME280;67231;59.144;37.934;2023-06-10T09:50:27;101328.38;;;16.66;37.83
77869;BME280;67231;59.144;37.934;2023-06-10T09:52:54;101331.81;;;16.50;38.04
77869;BME280;67231;59.144;37.934;2023-06-10T09:55:21;101336.84;;;16.53;37.84
77869;BME280;67231;59.144;37.934;2023-06-10T09:57:49;101334.88;;;16.55;38.50
77869;BME280;67231;59.144;37.934;2023-06-10T10:00:16;101336.63;;;17.07;37.59
77869;BME280;67231;59.144;37.934;2023-06-10T10:02:48;101335.25;;;17.70;37.71
77869;BME280;67231;59.144;37.934;2023-06-10T10:05:19;101340.13;;;18.32;36.75
77869;BME280;67231;59.144;37.934;2023-06-10T10:07:49;101339.78;;;18.35;35.94
77869;BME280;67231;59.144;37.934;2023-06-10T10:10:16;101345.34;;;18.26;36.29
77869;BME280;67231;59.144;37.934;2023-06-10T10:12:52;101328.88;;;17.63;36.72
77869;BME280;67231;59.144;37.934;2023-06-10T10:15:21;101330.47;;;17.23;37.24
77869;BME280;67231;59.144;37.934;2023-06-10T10:20:17;101325.00;;;17.65;36.60
77869;BME280;67231;59.144;37.934;2023-06-10T10:22:46;101342.63;;;17.76;35.81
77869;BME280;67231;59.144;37.934;2023-06-10T10:25:13;101342.25;;;17.38;36.35
77869;BME280;67231;59.144;37.934;2023-06-10T10:27:47;101334.13;;;17.14;36.22
77869;BME280;67231;59.144;37.934;2023-06-10T10:30:17;101334.41;;;16.94;36.59
77869;BME280;67231;59.144;37.934;2023-06-10T10:32:55;101343.84;;;16.80;37.01
77869;BME280;67231;59.144;37.934;2023-06-10T10:35:23;101345.59;;;16.55;37.41
77869;BME280;67231;59.144;37.934;2023-06-10T10:37:53;101347.22;;;16.48;37.56
77869;BME280;67231;59.144;37.934;2023-06-10T10:40:21;101354.31;;;16.57;38.06
77869;BME280;67231;59.144;37.934;2023-06-10T10:42:49;101357.41;;;16.79;37.80
77869;BME280;67231;59.144;37.934;2023-06-10T10:45:16;101365.53;;;16.87;38.63
77869;BME280;67231;59.144;37.934;2023-06-10T10:47:45;101348.38;;;16.80;37.83
77869;BME280;67231;59.144;37.934;2023-06-10T10:50:16;101346.63;;;16.62;38.51
77869;BME280;67231;59.144;37.934;2023-06-10T10:55:17;101331.16;;;16.82;37.53
77869;BME280;67231;59.144;37.934;2023-06-10T10:57:43;101332.63;;;16.77;36.85
77869;BME280;67231;59.144;37.934;2023-06-10T11:00:10;101328.63;;;16.81;36.78
77869;BME280;67231;59.144;37.934;2023-06-10T11:05:07;101321.00;;;16.94;36.57
77869;BME280;67231;59.144;37.934;2023-06-10T11:07:35;101331.22;;;16.90;35.97
77869;BME280;67231;59.144;37.934;2023-06-10T11:10:09;101321.59;;;16.80;36.56
77869;BME280;67231;59.144;37.934;2023-06-10T11:12:49;101335.97;;;16.79;36.58
77869;BME280;67231;59.144;37.934;2023-06-10T11:15:25;101334.94;;;16.71;36.78
77869;BME280;67231;59.144;37.934;2023-06-10T11:20:59;101329.66;;;16.27;36.99
77869;BME280;67231;59.144;37.934;2023-06-10T11:23:34;101329.41;;;16.12;36.96
77869;BME280;67231;59.144;37.934;2023-06-10T11:26:20;101332.63;;;16.42;37.31
77869;BME280;67231;59.144;37.934;2023-06-10T11:33:57;101325.63;;;16.23;36.89
77869;BME280;67231;59.144;37.934;2023-06-10T11:36:28;101351.00;;;15.93;37.09
77869;BME280;67231;59.144;37.934;2023-06-10T11:39:03;101360.91;;;15.46;37.82
77869;BME280;67231;59.144;37.934;2023-06-10T11:41:30;101353.28;;;15.06;38.09
77869;BME280;67231;59.144;37.934;2023-06-10T11:44:02;101360.38;;;14.87;38.77
77869;BME280;67231;59.144;37.934;2023-06-10T11:46:29;101359.97;;;14.82;38.69
77869;BME280;67231;59.144;37.934;2023-06-10T11:48:57;101352.81;;;14.83;39.12
77869;BME280;67231;59.144;37.934;2023-06-10T11:51:30;101360.47;;;14.96;38.86
77869;BME280;67231;59.144;37.934;2023-06-10T11:53:56;101359.84;;;15.11;38.93
77869;BME280;67231;59.144;37.934;2023-06-10T11:56:27;101349.00;;;15.13;39.04
77869;BME280;67231;59.144;37.934;2023-06-10T11:58:57;101352.06;;;15.18;38.98
77869;BME280;67231;59.144;37.934;2023-06-10T12:01:26;101347.22;;;15.32;39.09
77869;BME280;67231;59.144;37.934;2023-06-10T12:04:00;101342.63;;;15.42;39.00
77869;BME280;67231;59.144;37.934;2023-06-10T12:06:27;101342.41;;;15.53;39.14
77869;BME280;67231;59.144;37.934;2023-06-10T12:09:03;101343.94;;;15.74;39.52
77869;BME280;67231;59.144;37.934;2023-06-10T12:11:29;101347.22;;;16.22;38.28
77869;BME280;67231;59.144;37.934;2023-06-10T12:13:56;101363.06;;;16.15;37.84
77869;BME280;67231;59.144;37.934;2023-06-10T12:16:22;101356.88;;;15.96;38.67
77869;BME280;67231;59.144;37.934;2023-06-10T12:18:48;101354.34;;;15.59;38.80
77869;BME280;67231;59.144;37.934;2023-06-10T12:21:19;101364.69;;;15.26;39.16
77869;BME280;67231;59.144;37.934;2023-06-10T12:24:06;101367.13;;;14.91;39.76
77869;BME280;67231;59.144;37.934;2023-06-10T12:29:23;101369.75;;;14.64;39.54
77869;BME280;67231;59.144;37.934;2023-06-10T12:31:53;101371.47;;;14.45;39.18
77869;BME280;67231;59.144;37.934;2023-06-10T12:34:20;101378.50;;;14.27;38.91
77869;BME280;67231;59.144;37.934;2023-06-10T12:36:53;101380.22;;;14.28;38.61
77869;BME280;67231;59.144;37.934;2023-06-10T12:39:20;101354.59;;;14.35;38.40
77869;BME280;67231;59.144;37.934;2023-06-10T12:41:51;101362.16;;;14.49;39.10
77869;BME280;67231;59.144;37.934;2023-06-10T12:44:17;101366.69;;;14.39;38.98
77869;BME280;67231;59.144;37.934;2023-06-10T12:46:43;101357.75;;;14.20;39.42
77869;BME280;67231;59.144;37.934;2023-06-10T12:49:20;101360.28;;;14.02;40.02
77869;BME280;67231;59.144;37.934;2023-06-10T12:51:47;101356.09;;;13.90;40.21
77869;BME280;67231;59.144;37.934;2023-06-10T12:54:14;101363.97;;;13.82;40.95
77869;BME280;67231;59.144;37.934;2023-06-10T12:56:41;101352.84;;;13.77;41.09
77869;BME280;67231;59.144;37.934;2023-06-10T12:59:07;101355.50;;;13.87;40.81
77869;BME280;67231;59.144;37.934;2023-06-10T13:01:33;101350.72;;;14.19;40.45
77869;BME280;67231;59.144;37.934;2023-06-10T13:03:59;101338.56;;;14.54;40.01
77869;BME280;67231;59.144;37.934;2023-06-10T13:06:26;101356.19;;;14.75;39.52